createdAt,value
2018-06-21T00:00:08.162Z,20.75
2018-06-21T00:02:36.615Z,20.77
2018-06-21T00:05:05.110Z,20.75
2018-06-21T00:07:33.570Z,20.69
2018-06-21T00:10:02.253Z,20.65
2018-06-21T00:12:30.746Z,20.64
2018-06-21T00:14:59.271Z,20.58
2018-06-21T00:17:27.726Z,20.54
2018-06-21T00:19:56.207Z,20.49
2018-06-21T00:22:24.826Z,20.52
2018-06-21T00:24:53.440Z,20.51
2018-06-21T00:27:21.851Z,20.48
2018-06-21T00:29:50.306Z,20.42
2018-06-21T00:32:18.814Z,20.44
2018-06-21T00:34:47.270Z,20.43
2018-06-21T00:37:15.702Z,20.44
2018-06-21T00:39:44.151Z,20.38
2018-06-21T00:42:12.627Z,20.32
2018-06-21T00:44:41.127Z,20.32
2018-06-21T00:47:09.987Z,20.29
2018-06-21T00:49:38.354Z,20.26
2018-06-21T00:52:06.755Z,20.24
2018-06-21T00:54:35.215Z,20.21
2018-06-21T00:57:03.637Z,20.21
2018-06-21T00:59:32.103Z,20.20
2018-06-21T01:02:00.610Z,20.19
2018-06-21T01:04:29.070Z,20.16
2018-06-21T01:06:57.582Z,20.15
2018-06-21T01:09:26.023Z,20.12
2018-06-21T01:11:54.590Z,20.15
2018-06-21T01:14:26.337Z,20.18
2018-06-21T01:16:54.866Z,20.09
2018-06-21T01:19:23.462Z,20.08
2018-06-21T01:21:51.951Z,20.04
2018-06-21T01:24:21.136Z,20.03
2018-06-21T01:26:49.613Z,19.99
2018-06-21T01:29:18.082Z,19.97
2018-06-21T01:31:46.585Z,19.99
2018-06-21T01:34:15.143Z,19.95
2018-06-21T01:36:43.676Z,19.95
2018-06-21T01:39:12.157Z,19.92
2018-06-21T01:41:40.558Z,19.86
2018-06-21T01:44:08.959Z,19.80
2018-06-21T01:46:37.422Z,19.74
2018-06-21T01:49:05.844Z,19.70
2018-06-21T01:51:34.274Z,19.70
2018-06-21T01:54:02.711Z,19.75
2018-06-21T02:02:58.939Z,19.51
2018-06-21T02:05:27.325Z,19.43
2018-06-21T02:07:55.833Z,19.40
2018-06-21T02:10:24.378Z,19.42
2018-06-21T02:12:52.801Z,19.43
2018-06-21T02:15:21.224Z,19.51
2018-06-21T02:17:53.938Z,19.53
2018-06-21T02:20:22.426Z,19.57
2018-06-21T02:22:50.983Z,19.65
2018-06-21T02:25:19.413Z,19.64
2018-06-21T02:27:47.842Z,19.57
2018-06-21T02:30:16.278Z,19.50
2018-06-21T02:32:44.706Z,19.42
2018-06-21T02:35:13.510Z,19.37
2018-06-21T02:37:42.355Z,19.28
2018-06-21T02:40:10.815Z,19.17
2018-06-21T02:42:39.254Z,19.18
2018-06-21T02:45:07.695Z,19.10
2018-06-21T02:47:36.079Z,19.05
2018-06-21T02:50:04.824Z,19.00
2018-06-21T02:52:33.290Z,19.02
2018-06-21T02:55:02.154Z,19.06
2018-06-21T02:57:30.827Z,19.05
2018-06-21T02:59:59.345Z,19.03
2018-06-21T03:02:27.723Z,19.02
2018-06-21T03:04:56.121Z,19.00
2018-06-21T03:07:24.607Z,19.04
2018-06-21T03:09:53.082Z,19.03
2018-06-21T03:12:22.987Z,19.00
2018-06-21T03:14:52.394Z,19.02
2018-06-21T03:17:20.955Z,19.04
2018-06-21T03:19:49.602Z,19.06
2018-06-21T03:22:18.102Z,19.03
2018-06-21T03:24:46.522Z,19.01
2018-06-21T03:27:15.110Z,19.03
2018-06-21T03:29:43.591Z,18.98
2018-06-21T03:32:12.147Z,19.04
2018-06-21T03:34:40.748Z,19.12
2018-06-21T03:37:09.181Z,19.18
2018-06-21T03:39:37.575Z,19.31
2018-06-21T03:42:06.030Z,19.36
2018-06-21T03:44:34.530Z,19.41
2018-06-21T03:47:03.007Z,19.44
2018-06-21T03:49:31.447Z,19.46
2018-06-21T03:52:00.033Z,19.49
2018-06-21T03:54:35.547Z,19.53
2018-06-21T03:57:04.481Z,19.54
2018-06-21T03:59:32.967Z,19.52
2018-06-21T04:02:01.461Z,19.49
2018-06-21T04:04:29.927Z,19.53
2018-06-21T04:06:58.450Z,19.59
2018-06-21T04:09:27.051Z,19.65
2018-06-21T04:11:55.658Z,19.71
2018-06-21T04:14:24.253Z,19.76
2018-06-21T04:16:52.782Z,19.84
2018-06-21T04:19:21.304Z,19.95
2018-06-21T04:21:49.719Z,20.06
2018-06-21T04:24:18.346Z,20.07
2018-06-21T04:26:46.808Z,20.05
2018-06-21T04:29:15.262Z,20.06
2018-06-21T04:31:45.119Z,20.11
2018-06-21T04:34:17.612Z,20.19
2018-06-21T04:36:48.016Z,20.28
2018-06-21T04:39:19.184Z,20.31
2018-06-21T04:41:49.137Z,20.37
2018-06-21T04:44:19.892Z,20.43
2018-06-21T04:46:49.997Z,20.51
2018-06-21T04:49:20.573Z,20.61
2018-06-21T04:51:52.880Z,20.74
2018-06-21T04:54:23.538Z,20.91
2018-06-21T04:56:54.230Z,21.15
2018-06-21T04:59:24.537Z,21.22
2018-06-21T05:01:55.398Z,21.30
2018-06-21T05:04:27.200Z,21.52
2018-06-21T05:06:56.133Z,21.64
2018-06-21T05:09:24.773Z,21.67
2018-06-21T05:11:53.532Z,21.69
2018-06-21T05:14:22.396Z,21.73
2018-06-21T05:16:52.149Z,21.85
2018-06-21T05:19:21.242Z,21.91
2018-06-21T05:21:49.956Z,21.99
2018-06-21T05:24:19.721Z,22.01
2018-06-21T05:26:48.492Z,21.97
2018-06-21T05:29:17.558Z,22.00
2018-06-21T05:31:46.584Z,21.98
2018-06-21T05:34:15.595Z,22.08
2018-06-21T05:36:44.478Z,22.25
2018-06-21T05:39:13.579Z,22.28
2018-06-21T05:41:42.769Z,22.25
2018-06-21T05:44:11.557Z,22.21
2018-06-21T05:46:40.425Z,22.04
2018-06-21T05:49:09.408Z,22.16
2018-06-21T05:51:38.387Z,22.28
2018-06-21T05:54:07.379Z,22.34
2018-06-21T05:56:36.436Z,22.41
2018-06-21T05:59:05.540Z,22.34
2018-06-21T06:01:34.613Z,22.31
2018-06-21T06:04:03.701Z,22.41
2018-06-21T06:06:32.616Z,22.47
2018-06-21T06:09:01.565Z,22.41
2018-06-21T06:11:30.386Z,22.35
2018-06-21T06:13:59.242Z,22.47
2018-06-21T06:16:27.796Z,22.56
2018-06-21T06:18:56.418Z,22.63
2018-06-21T06:21:24.904Z,22.70
2018-06-21T06:23:53.499Z,22.69
2018-06-21T06:26:22.015Z,22.61
2018-06-21T06:28:50.667Z,22.61
2018-06-21T06:31:19.479Z,22.59
2018-06-21T06:33:48.495Z,22.62
2018-06-21T06:36:17.369Z,22.75
2018-06-21T06:38:45.999Z,22.82
2018-06-21T06:41:14.644Z,22.89
2018-06-21T06:43:43.655Z,23.02
2018-06-21T06:46:12.814Z,23.13
2018-06-21T06:48:41.697Z,23.22
2018-06-21T06:51:10.685Z,23.38
2018-06-21T06:53:39.575Z,23.39
2018-06-21T06:56:08.131Z,23.42
2018-06-21T06:58:38.228Z,23.51
2018-06-21T07:01:06.935Z,23.66
2018-06-21T07:03:35.808Z,23.70
2018-06-21T07:06:04.394Z,23.84
2018-06-21T07:08:32.990Z,23.90
2018-06-21T07:11:01.457Z,23.91
2018-06-21T07:13:30.326Z,23.91
2018-06-21T07:15:58.870Z,23.98
2018-06-21T07:18:27.518Z,24.01
2018-06-21T07:20:56.491Z,24.12
2018-06-21T07:23:25.357Z,24.25
2018-06-21T07:25:54.143Z,24.26
2018-06-21T07:28:23.362Z,24.35
2018-06-21T07:30:52.332Z,24.44
2018-06-21T07:33:20.901Z,24.41
2018-06-21T07:35:49.566Z,24.42
2018-06-21T07:38:19.032Z,24.44
2018-06-21T07:40:47.887Z,24.54
2018-06-21T07:43:17.115Z,24.59
2018-06-21T07:45:46.097Z,24.74
2018-06-21T07:48:15.035Z,24.82
2018-06-21T07:50:43.881Z,24.78
2018-06-21T07:53:12.679Z,24.82
2018-06-21T07:55:41.263Z,24.84
2018-06-21T07:58:09.722Z,25.03
2018-06-21T08:00:38.190Z,24.96
2018-06-21T08:03:06.675Z,24.86
2018-06-21T08:05:35.347Z,25.07
2018-06-21T08:08:03.967Z,25.17
2018-06-21T08:10:32.527Z,25.07
2018-06-21T08:13:01.183Z,25.19
2018-06-21T08:15:29.909Z,25.23
2018-06-21T08:17:58.617Z,25.42
2018-06-21T08:20:27.163Z,25.32
2018-06-21T08:22:55.626Z,25.40
2018-06-21T08:25:24.278Z,25.39
2018-06-21T08:27:53.076Z,25.61
2018-06-21T08:30:21.527Z,25.52
2018-06-21T08:32:50.042Z,25.60
2018-06-21T08:35:18.517Z,25.81
2018-06-21T08:37:47.253Z,25.89
2018-06-21T08:40:16.763Z,25.97
2018-06-21T08:42:45.241Z,26.02
2018-06-21T08:45:13.707Z,25.93
2018-06-21T08:47:42.233Z,26.12
2018-06-21T08:50:10.809Z,26.40
2018-06-21T08:52:39.238Z,26.36
2018-06-21T08:55:07.733Z,26.31
2018-06-21T08:57:36.466Z,26.43
2018-06-21T09:00:05.116Z,26.65
2018-06-21T09:02:33.933Z,26.52
2018-06-21T09:05:02.647Z,26.73
2018-06-21T09:07:31.126Z,26.78
2018-06-21T09:09:59.714Z,26.74
2018-06-21T09:12:37.094Z,27.06
2018-06-21T09:15:06.946Z,27.00
2018-06-21T09:17:35.685Z,27.24
2018-06-21T09:20:04.228Z,27.35
2018-06-21T09:22:33.054Z,27.62
2018-06-21T09:25:02.309Z,27.72
2018-06-21T09:27:31.235Z,27.71
2018-06-21T09:29:59.812Z,27.66
2018-06-21T09:32:29.838Z,27.86
2018-06-21T09:34:58.322Z,28.33
2018-06-21T09:37:32.331Z,28.82
2018-06-21T09:40:05.954Z,29.06
2018-06-21T09:42:39.728Z,29.26
2018-06-21T09:45:08.326Z,29.42
2018-06-21T09:47:42.028Z,29.19
2018-06-21T09:50:10.482Z,29.89
2018-06-21T09:52:38.928Z,30.07
2018-06-21T09:55:07.474Z,30.54
2018-06-21T09:57:35.904Z,30.62
2018-06-21T10:00:04.415Z,31.84
2018-06-21T10:02:32.911Z,32.37
2018-06-21T10:05:01.348Z,32.94
2018-06-21T10:07:29.810Z,33.42
2018-06-21T10:09:58.260Z,33.78
2018-06-21T10:12:26.806Z,33.96
2018-06-21T10:14:55.247Z,34.14
2018-06-21T10:17:23.686Z,34.58
2018-06-21T10:19:52.273Z,33.35
2018-06-21T10:22:20.698Z,33.52
2018-06-21T10:24:49.315Z,32.87
2018-06-21T10:27:17.809Z,31.73
2018-06-21T10:29:46.262Z,32.66
2018-06-21T10:32:14.799Z,32.63
2018-06-21T10:34:43.262Z,33.77
2018-06-21T10:37:11.765Z,34.13
2018-06-21T10:39:40.242Z,34.80
2018-06-21T10:42:08.682Z,35.88
2018-06-21T10:44:37.162Z,35.88
2018-06-21T10:47:05.666Z,35.29
2018-06-21T10:49:34.103Z,35.59
2018-06-21T10:52:02.628Z,35.60
2018-06-21T10:54:31.066Z,33.04
2018-06-21T10:57:02.135Z,32.26
2018-06-21T10:59:31.018Z,33.28
2018-06-21T11:01:59.453Z,34.52
2018-06-21T11:04:27.968Z,35.70
2018-06-21T11:06:56.474Z,36.69
2018-06-21T11:09:25.494Z,34.77
2018-06-21T11:11:53.951Z,33.30
2018-06-21T11:14:22.347Z,34.08
2018-06-21T11:16:50.891Z,34.93
2018-06-21T11:19:19.368Z,35.13
2018-06-21T11:21:48.003Z,34.88
2018-06-21T11:24:16.452Z,35.27
2018-06-21T11:26:44.951Z,34.64
2018-06-21T11:29:13.492Z,34.75
2018-06-21T11:31:41.973Z,35.46
2018-06-21T11:34:10.442Z,35.22
2018-06-21T11:36:38.974Z,35.55
2018-06-21T11:39:09.258Z,35.49
2018-06-21T11:41:37.859Z,36.00
2018-06-21T11:44:06.847Z,35.07
2018-06-21T11:46:35.388Z,34.42
2018-06-21T11:49:03.997Z,34.40
2018-06-21T11:51:32.558Z,34.17
2018-06-21T11:54:01.102Z,35.40
2018-06-21T11:56:29.530Z,36.53
2018-06-21T11:58:57.946Z,36.89
2018-06-21T12:01:26.422Z,37.29
2018-06-21T12:03:54.918Z,37.16
2018-06-21T12:06:23.390Z,36.87
2018-06-21T12:08:51.948Z,36.33
2018-06-21T12:11:21.462Z,37.22
2018-06-21T12:13:51.514Z,37.97
2018-06-21T12:16:20.368Z,37.89
2018-06-21T12:18:49.145Z,38.05
2018-06-21T12:21:17.741Z,38.33
2018-06-21T12:23:46.339Z,39.26
2018-06-21T12:26:15.099Z,39.08
2018-06-21T12:28:44.170Z,37.94
2018-06-21T12:31:13.113Z,37.88
2018-06-21T12:33:42.170Z,36.72
2018-06-21T12:36:10.776Z,37.51
2018-06-21T12:38:39.376Z,37.16
2018-06-21T12:41:08.330Z,36.04
2018-06-21T12:43:36.935Z,37.91
2018-06-21T12:46:06.404Z,37.74
2018-06-21T12:48:34.914Z,37.80
2018-06-21T12:51:03.540Z,37.70
2018-06-21T12:53:32.141Z,38.30
2018-06-21T12:56:00.838Z,37.50
2018-06-21T12:58:33.771Z,37.84
2018-06-21T13:01:08.477Z,37.61
2018-06-21T13:03:41.441Z,36.24
2018-06-21T13:06:14.510Z,37.15
2018-06-21T13:08:56.642Z,38.28
2018-06-21T13:11:40.349Z,38.38
2018-06-21T13:14:20.522Z,36.88
2018-06-21T13:16:49.434Z,36.76
2018-06-21T13:19:18.069Z,36.48
2018-06-21T13:21:46.718Z,37.84
2018-06-21T13:24:15.391Z,38.60
2018-06-21T13:26:44.056Z,39.03
2018-06-21T13:29:12.692Z,38.10
2018-06-21T13:31:41.358Z,37.82
2018-06-21T13:34:10.248Z,36.83
2018-06-21T13:36:39.098Z,36.60
2018-06-21T13:39:08.449Z,38.51
2018-06-21T13:41:37.067Z,37.54
2018-06-21T13:44:05.894Z,36.16
2018-06-21T13:46:34.667Z,34.90
2018-06-21T13:49:03.258Z,36.06
2018-06-21T13:51:32.281Z,35.72
2018-06-21T13:54:01.266Z,36.51
2018-06-21T13:56:29.767Z,39.12
2018-06-21T13:58:58.432Z,39.97
2018-06-21T14:01:30.547Z,39.08
2018-06-21T14:03:59.522Z,38.50
2018-06-21T14:06:28.458Z,38.69
2018-06-21T14:09:00.280Z,37.13
2018-06-21T14:11:29.015Z,37.56
2018-06-21T14:13:58.339Z,38.76
2018-06-21T14:16:31.027Z,38.72
2018-06-21T14:18:59.741Z,39.87
2018-06-21T14:21:29.767Z,40.76
2018-06-21T14:23:58.574Z,41.56
2018-06-21T14:26:27.167Z,41.91
2018-06-21T14:28:56.511Z,43.00
2018-06-21T14:31:25.738Z,41.99
2018-06-21T14:33:54.738Z,41.66
2018-06-21T14:36:23.865Z,40.75
2018-06-21T14:38:52.939Z,41.29
2018-06-21T14:41:25.919Z,42.30
2018-06-21T14:43:54.931Z,42.59
2018-06-21T14:46:23.533Z,41.56
2018-06-21T14:48:52.571Z,42.01
2018-06-21T14:51:22.171Z,42.30
2018-06-21T14:53:56.213Z,43.32
2018-06-21T14:56:26.406Z,42.34
2018-06-21T14:58:55.054Z,43.03
2018-06-21T15:01:23.691Z,43.37
2018-06-21T15:03:52.427Z,44.38
2018-06-21T15:06:21.029Z,43.87
2018-06-21T15:08:49.523Z,43.79
2018-06-21T15:11:18.447Z,44.19
2018-06-21T15:13:51.272Z,41.94
2018-06-21T15:16:22.150Z,41.86
2018-06-21T15:18:50.843Z,44.38
2018-06-21T15:21:19.472Z,43.66
2018-06-21T15:23:49.016Z,39.46
2018-06-21T15:26:17.688Z,36.27
2018-06-21T15:28:46.171Z,33.66
2018-06-21T15:31:14.697Z,32.23
2018-06-21T15:33:43.325Z,31.05
2018-06-21T15:36:11.794Z,30.36
2018-06-21T15:38:40.396Z,29.81
2018-06-21T15:41:08.870Z,29.89
2018-06-21T15:43:37.396Z,29.81
2018-06-21T15:46:05.951Z,33.30
2018-06-21T15:48:34.732Z,37.65
2018-06-21T15:51:03.515Z,35.45
2018-06-21T15:53:32.393Z,34.12
2018-06-21T15:56:00.899Z,34.59
2018-06-21T15:58:29.479Z,36.15
2018-06-21T16:00:58.091Z,33.28
2018-06-21T16:03:26.655Z,31.54
2018-06-21T16:05:55.125Z,30.62
2018-06-21T16:08:23.924Z,30.56
2018-06-21T16:10:52.503Z,31.81
2018-06-21T16:13:20.970Z,30.76
2018-06-21T16:15:51.659Z,30.83
2018-06-21T16:18:20.519Z,32.93
2018-06-21T16:20:49.082Z,33.51
2018-06-21T16:23:17.530Z,34.64
2018-06-21T16:25:46.210Z,34.94
2018-06-21T16:28:14.787Z,35.65
2018-06-21T16:30:43.311Z,32.26
2018-06-21T16:33:11.802Z,30.50
2018-06-21T16:35:40.267Z,31.27
2018-06-21T16:38:08.678Z,31.02
2018-06-21T16:40:37.199Z,30.67
2018-06-21T16:43:05.981Z,30.19
2018-06-21T16:45:34.520Z,29.02
2018-06-21T16:48:03.007Z,29.13
2018-06-21T16:50:31.726Z,32.47
2018-06-21T16:53:00.440Z,30.05
2018-06-21T16:55:29.036Z,28.70
2018-06-21T16:57:57.499Z,27.74
2018-06-21T17:00:26.179Z,27.30
2018-06-21T17:02:54.648Z,27.53
2018-06-21T17:05:23.370Z,28.01
2018-06-21T17:07:52.083Z,30.51
2018-06-21T17:10:21.663Z,32.35
2018-06-21T17:12:50.200Z,30.15
2018-06-21T17:16:22.335Z,28.64
2018-06-21T17:18:51.047Z,27.13
2018-06-21T17:21:19.689Z,26.67
2018-06-21T17:23:48.236Z,26.49
2018-06-21T17:26:16.879Z,26.08
2018-06-21T17:28:45.474Z,25.72
2018-06-21T17:31:15.084Z,25.46
2018-06-21T17:33:43.594Z,25.33
2018-06-21T17:36:12.603Z,25.20
2018-06-21T17:38:42.082Z,25.01
2018-06-21T17:41:11.012Z,24.84
2018-06-21T17:43:39.739Z,24.73
2018-06-21T17:46:08.645Z,24.74
2018-06-21T17:48:37.420Z,24.90
2018-06-21T17:51:06.237Z,25.07
2018-06-21T17:53:35.050Z,25.04
2018-06-21T17:56:03.709Z,24.92
2018-06-21T17:58:32.505Z,24.70
2018-06-21T18:01:01.127Z,24.37
2018-06-21T18:03:29.628Z,24.15
2018-06-21T18:05:58.435Z,24.03
2018-06-21T18:08:26.947Z,24.04
2018-06-21T18:10:59.764Z,23.93
2018-06-21T18:13:28.416Z,23.87
2018-06-21T18:15:56.988Z,23.82
2018-06-21T18:18:25.504Z,23.73
2018-06-21T18:20:54.316Z,23.76
2018-06-21T18:23:22.923Z,23.64
2018-06-21T18:25:51.433Z,23.63
2018-06-21T18:28:20.182Z,23.59
2018-06-21T18:30:48.663Z,23.48
2018-06-21T18:33:17.470Z,23.39
2018-06-21T18:35:46.067Z,23.31
2018-06-21T18:38:14.940Z,23.34
2018-06-21T18:40:43.408Z,23.24
2018-06-21T18:43:12.146Z,23.11
2018-06-21T18:45:40.967Z,23.02
2018-06-21T18:48:09.455Z,22.96
2018-06-21T18:50:37.891Z,22.99
2018-06-21T18:53:06.438Z,22.95
2018-06-21T18:55:34.915Z,22.88
2018-06-21T18:58:03.434Z,22.95
2018-06-21T19:00:31.991Z,22.89
2018-06-21T19:03:00.468Z,22.79
2018-06-21T19:05:29.032Z,22.75
2018-06-21T19:08:02.822Z,22.73
2018-06-21T19:10:36.559Z,22.70
2018-06-21T19:13:05.098Z,22.72
2018-06-21T19:15:33.629Z,22.66
2018-06-21T19:18:02.190Z,22.67
2018-06-21T19:20:30.679Z,22.67
2018-06-21T19:22:59.153Z,22.58
2018-06-21T19:25:27.655Z,22.53
2018-06-21T19:27:56.183Z,22.53
2018-06-21T19:30:24.838Z,22.50
2018-06-21T19:32:53.438Z,22.50
2018-06-21T19:35:22.109Z,22.45
2018-06-21T19:37:50.526Z,22.43
2018-06-21T19:40:19.211Z,22.39
2018-06-21T19:42:48.390Z,22.34
2018-06-21T19:45:17.159Z,22.23
2018-06-21T19:47:45.731Z,22.21
2018-06-21T19:50:14.523Z,22.23
2018-06-21T19:52:43.354Z,22.18
2018-06-21T19:55:12.222Z,22.17
2018-06-21T19:57:40.806Z,22.13
2018-06-21T20:00:09.350Z,22.10
2018-06-21T20:02:43.132Z,22.06
2018-06-21T20:05:12.209Z,22.03
2018-06-21T20:07:40.758Z,21.95
2018-06-21T20:10:09.210Z,21.98
2018-06-21T20:12:37.715Z,21.95
2018-06-21T20:15:06.204Z,21.94
2018-06-21T20:17:34.753Z,21.94
2018-06-21T20:20:08.577Z,21.90
2018-06-21T20:22:37.431Z,21.84
2018-06-21T20:25:06.008Z,21.81
2018-06-21T20:27:34.605Z,21.71
2018-06-21T20:30:03.533Z,21.59
2018-06-21T20:32:31.954Z,21.50
2018-06-21T20:35:00.521Z,21.45
2018-06-21T20:37:29.039Z,21.31
2018-06-21T20:39:57.468Z,21.23
2018-06-21T20:42:25.875Z,21.22
2018-06-21T20:44:54.354Z,21.09
2018-06-21T20:47:22.890Z,21.02
2018-06-21T20:49:51.392Z,20.95
2018-06-21T20:52:25.150Z,20.85
2018-06-21T20:54:53.631Z,20.80
2018-06-21T20:57:22.247Z,20.70
2018-06-21T20:59:50.708Z,20.60
2018-06-21T21:02:19.194Z,20.54
2018-06-21T21:05:14.899Z,20.41
2018-06-21T21:07:44.244Z,20.24
2018-06-21T21:10:13.980Z,20.11
2018-06-21T21:12:42.564Z,19.97
2018-06-21T21:15:11.975Z,19.88
2018-06-21T21:17:40.557Z,19.75
2018-06-21T21:20:09.530Z,19.63
2018-06-21T21:22:39.188Z,19.48
2018-06-21T21:25:07.650Z,19.37
2018-06-21T21:27:36.395Z,19.28
2018-06-21T21:30:06.641Z,19.25
2018-06-21T21:32:35.496Z,19.14
2018-06-21T21:35:04.234Z,19.06
2018-06-21T21:37:32.998Z,18.96
2018-06-21T21:40:04.231Z,18.87
2018-06-21T21:42:34.003Z,18.79
2018-06-21T21:45:02.472Z,18.71
2018-06-21T21:47:31.214Z,18.60
2018-06-21T21:50:00.011Z,18.59
2018-06-21T21:52:28.770Z,18.52
2018-06-21T21:54:57.198Z,18.41
2018-06-21T21:57:25.711Z,18.28
2018-06-21T21:59:54.362Z,18.22
2018-06-21T22:02:23.054Z,18.10
2018-06-21T22:04:51.503Z,17.97
2018-06-21T22:07:19.951Z,17.87
2018-06-21T22:09:48.426Z,17.91
2018-06-21T22:12:16.906Z,17.81
2018-06-21T22:14:45.487Z,17.76
2018-06-21T22:17:13.981Z,17.80
2018-06-21T22:19:42.414Z,17.74
2018-06-21T22:22:10.794Z,17.82
2018-06-21T22:24:39.298Z,17.80
2018-06-21T22:27:07.738Z,17.89
2018-06-21T22:29:39.614Z,17.85
2018-06-21T22:32:08.091Z,17.82
2018-06-21T22:34:36.519Z,17.76
2018-06-21T22:37:04.954Z,17.79
2018-06-21T22:39:33.358Z,17.79
2018-06-21T22:42:01.763Z,17.69
2018-06-21T22:44:30.202Z,17.63
2018-06-21T22:46:58.604Z,17.49
2018-06-21T22:49:27.058Z,17.41
2018-06-21T22:51:55.513Z,17.28
2018-06-21T22:54:23.926Z,17.19
2018-06-21T22:56:52.437Z,17.12
2018-06-21T22:59:20.926Z,17.10
2018-06-21T23:01:53.326Z,17.05
2018-06-21T23:04:21.768Z,16.95
2018-06-21T23:06:51.286Z,16.79
2018-06-21T23:09:19.662Z,16.61
2018-06-21T23:11:48.084Z,16.47
2018-06-21T23:14:16.786Z,16.36
2018-06-21T23:16:45.410Z,16.20
2018-06-21T23:19:25.029Z,16.08
2018-06-21T23:21:53.780Z,15.97
2018-06-21T23:24:22.502Z,15.91
2018-06-21T23:26:52.299Z,15.81
2018-06-21T23:29:20.677Z,15.77
2018-06-21T23:31:49.455Z,15.79
2018-06-21T23:34:18.362Z,15.65
2018-06-21T23:36:46.910Z,15.60
2018-06-21T23:39:15.422Z,15.54
2018-06-21T23:41:44.393Z,15.47
2018-06-21T23:44:14.057Z,15.41
2018-06-21T23:46:43.101Z,15.38
2018-06-21T23:49:11.998Z,15.28
2018-06-21T23:51:40.625Z,15.18
2018-06-21T23:54:12.230Z,15.11
2018-06-21T23:56:41.453Z,15.09
2018-06-21T23:59:09.919Z,14.96
